Time;durP1;ratioP1;P1;durP2;ratioP2;P2;SDS_P1;SDS_P2;PMS_P1;PMS_P2;Temp;Humidity;BMP_temperature;BMP_pressure;BME280_temperature;BME280_humidity;BME280_pressure;Samples;Min_cycle;Max_cycle;Signal;HPM_P1;HPM_P2
2023/09/25 00:02:58;;;;;;;8.77;3.50;;;;;7.20;97198.00;;;;8351376;28;20654;-62
2023/09/25 00:07:04;;;;;;;4.47;3.20;;;;;7.10;97200.00;;;;8353004;28;20447;-62
2023/09/25 00:11:09;;;;;;;4.17;3.27;;;;;7.10;97199.00;;;;8351097;28;20764;-62
2023/09/25 00:15:12;;;;;;;4.73;3.50;;;;;7.10;97202.00;;;;8350208;28;20379;-62
2023/09/25 00:19:18;;;;;;;3.50;3.13;;;;;7.10;97205.00;;;;8351613;28;20718;-62
2023/09/25 00:23:25;;;;;;;4.97;3.50;;;;;7.10;97201.00;;;;8352181;28;20215;-62
2023/09/25 00:27:31;;;;;;;10.37;3.60;;;;;7.10;97193.00;;;;8353654;28;20228;-62
2023/09/25 00:31:36;;;;;;;3.67;3.37;;;;;7.00;97187.00;;;;8339290;28;20310;-63
2023/09/25 00:35:43;;;;;;;5.07;2.93;;;;;7.10;97188.00;;;;8348929;28;20216;-63
2023/09/25 00:39:53;;;;;;;3.87;3.47;;;;;7.10;97176.00;;;;8349743;28;20785;-63
2023/09/25 00:43:58;;;;;;;3.80;3.43;;;;;7.10;97184.00;;;;8349149;28;20200;-63
2023/09/25 00:48:04;;;;;;;3.60;3.17;;;;;7.00;97185.00;;;;8349723;28;20233;-62
2023/09/25 00:52:12;;;;;;;5.37;3.63;;;;;7.00;97192.00;;;;8348935;28;20274;-63
2023/09/25 00:56:19;;;;;;;3.80;3.17;;;;;7.00;97184.00;;;;8348377;28;20978;-63
2023/09/25 01:00:26;;;;;;;5.33;3.83;;;;;7.00;97185.00;;;;8350503;28;22027;-62
2023/09/25 01:04:31;;;;;;;5.20;3.13;;;;;7.00;97191.00;;;;8347701;28;20228;-63
2023/09/25 01:08:34;;;;;;;6.47;3.70;;;;;7.00;97191.00;;;;8350761;28;20193;-63
2023/09/25 01:12:39;;;;;;;4.27;3.30;;;;;6.90;97189.00;;;;8349159;28;20335;-62
2023/09/25 01:16:42;;;;;;;5.10;3.63;;;;;6.90;97181.00;;;;8348015;28;20227;-63
2023/09/25 01:20:49;;;;;;;4.80;3.20;;;;;6.80;97187.00;;;;8348232;28;20205;-62
2023/09/25 01:24:57;;;;;;;5.77;3.63;;;;;6.80;97182.00;;;;8349522;28;20215;-63
2023/09/25 01:29:02;;;;;;;4.30;3.63;;;;;6.70;97177.00;;;;8348759;28;20725;-63
2023/09/25 01:33:05;;;;;;;6.37;3.50;;;;;6.80;97165.00;;;;8349487;28;20224;-63
2023/09/25 01:37:10;;;;;;;7.57;4.83;;;;;7.10;97160.00;;;;8346770;28;20204;-63
2023/09/25 01:41:17;;;;;;;6.13;4.63;;;;;7.60;97154.00;;;;8342676;28;20651;-62
2023/09/25 01:45:25;;;;;;;7.33;4.50;;;;;8.00;97166.00;;;;8349614;28;20208;-63
2023/09/25 01:49:32;;;;;;;6.43;4.60;;;;;8.40;97163.00;;;;8351208;28;20201;-62
2023/09/25 01:53:42;;;;;;;3.83;3.10;;;;;8.50;97163.00;;;;8349391;28;20304;-62
2023/09/25 01:57:49;;;;;;;4.87;3.07;;;;;8.10;97163.00;;;;8348520;28;20236;-62
2023/09/25 02:01:52;;;;;;;3.17;2.80;;;;;7.70;97157.00;;;;8346022;28;20307;-62
2023/09/25 02:05:57;;;;;;;5.80;3.10;;;;;7.50;97155.00;;;;8343298;28;20193;-62
2023/09/25 02:10:00;;;;;;;2.73;2.50;;;;;7.30;97158.00;;;;8349372;28;20834;-62
2023/09/25 02:14:06;;;;;;;3.20;2.90;;;;;7.10;97155.00;;;;8346720;28;20205;-62
2023/09/25 02:18:09;;;;;;;9.23;2.97;;;;;6.90;97152.00;;;;8346615;28;20664;-62
2023/09/25 02:22:13;;;;;;;3.77;2.80;;;;;6.90;97151.00;;;;8346280;28;20205;-62
2023/09/25 02:26:19;;;;;;;8.37;3.83;;;;;6.80;97138.00;;;;8347958;28;20780;-62
2023/09/25 02:30:23;;;;;;;5.13;4.40;;;;;7.10;97136.00;;;;8345825;28;20346;-62
2023/09/25 02:34:28;;;;;;;8.70;4.40;;;;;7.50;97135.00;;;;8346669;28;20192;-62
2023/09/25 02:38:31;;;;;;;4.97;3.10;;;;;7.50;97134.00;;;;8345440;28;20201;-62
2023/09/25 02:42:34;;;;;;;3.50;2.90;;;;;7.40;97131.00;;;;8331486;28;20199;-62
2023/09/25 02:46:45;;;;;;;3.53;2.93;;;;;7.20;97133.00;;;;8344614;28;20674;-62
2023/09/25 02:50:49;;;;;;;3.60;2.50;;;;;7.00;97128.00;;;;8344882;28;20216;-62
2023/09/25 02:54:53;;;;;;;4.53;2.87;;;;;7.00;97111.00;;;;8346283;28;20200;-63
2023/09/25 02:58:59;;;;;;;3.17;2.87;;;;;6.90;97105.00;;;;8347113;28;20239;-63
2023/09/25 03:03:14;;;;;;;5.00;2.93;;;;;6.70;97103.00;;;;8368820;22;20232;-63
2023/09/25 03:07:17;;;;;;;3.83;3.30;;;;;6.70;97108.00;;;;8341379;28;20231;-62
2023/09/25 03:11:24;;;;;;;4.80;3.10;;;;;6.60;97102.00;;;;8347161;28;20231;-62
2023/09/25 03:15:31;;;;;;;2.83;2.63;;;;;6.50;97108.00;;;;8341509;28;20208;-62
2023/09/25 03:19:38;;;;;;;4.37;3.37;;;;;6.50;97093.00;;;;8345437;28;20197;-63
2023/09/25 03:23:42;;;;;;;5.60;3.50;;;;;6.40;97088.00;;;;8345969;28;20668;-63
2023/09/25 03:27:45;;;;;;;3.73;2.93;;;;;6.30;97089.00;;;;8346768;28;20727;-62
2023/09/25 03:31:51;;;;;;;5.07;3.77;;;;;6.20;97105.00;;;;8344610;28;20224;-63
2023/09/25 03:35:58;;;;;;;5.70;3.47;;;;;6.10;97085.00;;;;8344201;28;20641;-62
2023/09/25 03:40:07;;;;;;;4.13;3.43;;;;;6.10;97089.00;;;;8345750;28;20214;-62
2023/09/25 03:44:10;;;;;;;5.20;3.50;;;;;6.00;97090.00;;;;8344219;28;20784;-62
2023/09/25 03:48:19;;;;;;;3.50;3.00;;;;;6.00;97089.00;;;;8343064;28;20255;-63
2023/09/25 03:52:24;;;;;;;4.53;3.40;;;;;6.10;97085.00;;;;8339245;28;20339;-62
2023/09/25 03:56:29;;;;;;;4.00;3.30;;;;;6.00;97075.00;;;;8340706;28;20284;-63
2023/09/25 04:00:32;;;;;;;5.67;3.30;;;;;6.00;97076.00;;;;8344336;28;20689;-62
2023/09/25 04:04:36;;;;;;;4.87;3.20;;;;;6.00;97079.00;;;;8308813;28;20612;-62
2023/09/25 04:08:41;;;;;;;4.67;3.27;;;;;6.10;97080.00;;;;8307981;28;20205;-62
2023/09/25 04:12:47;;;;;;;5.13;3.30;;;;;6.20;97075.00;;;;8306219;28;20316;-62
2023/09/25 04:16:54;;;;;;;5.37;3.70;;;;;6.20;97083.00;;;;8307907;28;20205;-62
2023/09/25 04:21:02;;;;;;;5.30;3.67;;;;;6.20;97075.00;;;;8309313;28;20197;-62
2023/09/25 04:25:10;;;;;;;6.63;3.67;;;;;6.20;97087.00;;;;8311062;28;20219;-62
2023/09/25 04:29:17;;;;;;;4.13;3.13;;;;;6.10;97076.00;;;;8308346;28;21324;-62
2023/09/25 04:33:24;;;;;;;7.57;3.80;;;;;6.10;97073.00;;;;8311830;28;20261;-61
2023/09/25 04:37:27;;;;;;;9.17;3.57;;;;;6.10;97068.00;;;;8311777;28;20548;-62
2023/09/25 04:41:33;;;;;;;4.67;3.10;;;;;6.00;97068.00;;;;8294639;28;20213;-61
2023/09/25 04:45:39;;;;;;;5.73;3.50;;;;;6.00;97071.00;;;;8281782;28;20193;-62
2023/09/25 04:49:46;;;;;;;9.03;3.83;;;;;5.90;97067.00;;;;8290661;28;20330;-62
2023/09/25 04:53:56;;;;;;;7.70;3.50;;;;;5.90;97075.00;;;;8292181;28;20241;-61
2023/09/25 04:58:02;;;;;;;8.47;4.83;;;;;5.90;97063.00;;;;8286808;28;20364;-61
2023/09/25 05:02:06;;;;;;;8.20;3.80;;;;;5.90;97070.00;;;;8291070;28;20694;-61
2023/09/25 05:06:12;;;;;;;7.50;4.03;;;;;5.80;97072.00;;;;8285068;28;20210;-62
2023/09/25 05:10:18;;;;;;;5.57;3.67;;;;;5.80;97075.00;;;;8310880;28;20606;-61
2023/09/25 05:14:23;;;;;;;7.43;3.87;;;;;5.90;97078.00;;;;8306674;28;20229;-62
2023/09/25 05:18:27;;;;;;;12.23;7.20;;;;;6.00;97074.00;;;;8300205;28;20691;-62
2023/09/25 05:22:30;;;;;;;12.00;7.30;;;;;6.50;97083.00;;;;8299493;28;20216;-62
2023/09/25 05:26:39;;;;;;;15.33;7.13;;;;;6.70;97091.00;;;;8304849;28;20202;-62
2023/09/25 05:30:43;;;;;;;12.00;6.87;;;;;7.10;97084.00;;;;8297494;28;20201;-62
2023/09/25 05:34:47;;;;;;;13.50;7.73;;;;;7.70;97081.00;;;;8298760;28;20325;-61
2023/09/25 05:38:55;;;;;;;10.27;7.03;;;;;8.10;97083.00;;;;8298613;28;20316;-62
2023/09/25 05:42:58;;;;;;;9.67;6.50;;;;;8.40;97089.00;;;;8278005;28;20859;-62
2023/09/25 05:47:03;;;;;;;10.00;5.13;;;;;8.50;97088.00;;;;8309633;28;20697;-62
2023/09/25 05:51:06;;;;;;;6.50;3.80;;;;;8.30;97089.00;;;;8314240;28;20199;-62
2023/09/25 05:55:11;;;;;;;7.00;4.33;;;;;8.10;97080.00;;;;8311333;28;20831;-62
2023/09/25 05:59:14;;;;;;;9.53;6.33;;;;;8.10;97086.00;;;;8316821;28;20201;-62
2023/09/25 06:03:18;;;;;;;9.35;6.10;;;;;8.50;97087.00;;;;8305902;28;20247;-63
2023/09/25 06:07:24;;;;;;;12.00;6.80;;;;;8.90;97093.00;;;;8310091;28;20205;-63
2023/09/25 06:11:29;;;;;;;9.33;6.57;;;;;9.20;97091.00;;;;8309339;28;20228;-62
2023/09/25 06:15:37;;;;;;;7.80;6.03;;;;;9.50;97098.00;;;;8304827;28;20217;-63
2023/09/25 06:19:42;;;;;;;7.90;6.05;;;;;9.70;97106.00;;;;8319006;28;20628;-63
2023/09/25 06:23:47;;;;;;;9.52;6.13;;;;;9.90;97105.00;;;;8314282;28;20925;-63
2023/09/25 06:27:52;;;;;;;6.05;5.40;;;;;10.00;97105.00;;;;8302499;28;20197;-63
2023/09/25 06:31:56;;;;;;;9.82;5.90;;;;;10.20;97093.00;;;;8287955;28;20234;-63
2023/09/25 06:36:06;;;;;;;11.57;6.13;;;;;10.30;97094.00;;;;8287656;28;20732;-63
2023/09/25 06:40:10;;;;;;;8.45;5.57;;;;;10.50;97096.00;;;;8292367;28;20859;-64
2023/09/25 06:44:14;;;;;;;6.25;5.60;;;;;10.70;97105.00;;;;8299763;28;20664;-63
2023/09/25 06:48:17;;;;;;;6.18;5.57;;;;;10.80;97100.00;;;;8300634;28;20603;-63
2023/09/25 06:52:25;;;;;;;8.02;5.88;;;;;10.90;97101.00;;;;8302754;28;20261;-63
2023/09/25 06:56:28;;;;;;;8.18;5.75;;;;;11.10;97111.00;;;;8304906;28;20707;-63
2023/09/25 07:00:32;;;;;;;8.10;5.00;;;;;11.20;97110.00;;;;8302527;28;20231;-63
2023/09/25 07:04:59;;;;;;;5.88;5.28;;;;;11.30;97111.00;;;;8277182;28;20255;-63
2023/09/25 07:09:08;;;;;;;6.60;4.85;;;;;11.50;97117.00;;;;8276779;28;20285;-63
2023/09/25 07:13:15;;;;;;;7.43;4.95;;;;;11.60;97114.00;;;;8274925;28;20351;-64
2023/09/25 07:17:21;;;;;;;7.38;4.95;;;;;11.80;97108.00;;;;8259660;28;20290;-63
2023/09/25 07:21:25;;;;;;;5.43;4.85;;;;;12.00;97113.00;;;;8275699;28;20214;-63
2023/09/25 07:25:33;;;;;;;6.10;4.85;;;;;12.10;97119.00;;;;8275320;28;20209;-63
2023/09/25 07:29:37;;;;;;;5.88;4.65;;;;;12.20;97125.00;;;;8273823;28;20201;-63
2023/09/25 07:33:47;;;;;;;7.15;4.38;;;;;12.30;97123.00;;;;8273666;28;20297;-63
2023/09/25 07:37:54;;;;;;;11.18;6.38;;;;;12.50;97121.00;;;;8258717;28;21007;-64
2023/09/25 07:42:04;;;;;;;8.45;5.32;;;;;12.60;97128.00;;;;8272938;28;20202;-64
2023/09/25 07:46:07;;;;;;;5.07;4.57;;;;;12.80;97129.00;;;;8256631;28;20296;-63
2023/09/25 07:50:11;;;;;;;7.00;3.92;;;;;12.90;97131.00;;;;8274170;28;20242;-63
2023/09/25 07:54:15;;;;;;;7.43;4.40;;;;;13.10;97142.00;;;;8274425;28;20235;-63
2023/09/25 07:58:19;;;;;;;7.38;4.25;;;;;13.20;97134.00;;;;8277455;28;20231;-63
2023/09/25 08:02:26;;;;;;;5.47;3.65;;;;;13.40;97136.00;;;;8278884;28;20341;-63
2023/09/25 08:06:29;;;;;;;4.78;3.30;;;;;13.70;97137.00;;;;8284898;28;20201;-63
2023/09/25 08:10:33;;;;;;;3.80;3.35;;;;;13.80;97140.00;;;;8299891;28;20208;-63
2023/09/25 08:14:42;;;;;;;4.30;3.58;;;;;13.90;97142.00;;;;8295149;28;20237;-63
2023/09/25 08:18:46;;;;;;;3.72;3.40;;;;;14.10;97146.00;;;;8298540;28;20280;-63
2023/09/25 08:22:50;;;;;;;4.93;3.25;;;;;14.30;97149.00;;;;8299091;28;20695;-63
2023/09/25 08:26:57;;;;;;;7.13;3.50;;;;;14.40;97153.00;;;;8299569;28;20589;-63
2023/09/25 08:31:04;;;;;;;4.25;3.60;;;;;14.70;97154.00;;;;8307688;28;20212;-63
2023/09/25 08:35:09;;;;;;;5.55;3.05;;;;;14.90;97156.00;;;;8309282;28;20653;-63
2023/09/25 08:39:14;;;;;;;4.80;3.20;;;;;15.00;97148.00;;;;8308975;28;20673;-63
2023/09/25 08:43:21;;;;;;;3.35;3.05;;;;;15.20;97143.00;;;;8312025;28;20209;-63
2023/09/25 08:47:31;;;;;;;3.45;3.10;;;;;15.50;97141.00;;;;8313365;28;20209;-63
2023/09/25 08:51:37;;;;;;;3.33;2.88;;;;;16.10;97140.00;;;;8315801;28;20200;-63
2023/09/25 08:55:42;;;;;;;6.00;3.05;;;;;16.50;97134.00;;;;8296538;28;20230;-63
2023/09/25 08:59:46;;;;;;;3.80;2.80;;;;;17.10;97141.00;;;;8291539;28;20226;-63
2023/09/25 09:04:02;;;;;;;3.85;2.60;;;;;17.50;97133.00;;;;8311291;28;20240;-63
2023/09/25 09:08:07;;;;;;;6.70;3.13;;;;;18.10;97132.00;;;;8312017;28;20201;-63
2023/09/25 09:12:12;;;;;;;4.95;2.60;;;;;18.60;97131.00;;;;8306073;28;20248;-63
2023/09/25 09:16:19;;;;;;;5.63;2.88;;;;;19.20;97134.00;;;;8312635;28;20233;-64
2023/09/25 09:20:37;;;;;;;4.13;3.08;;;;;19.50;97131.00;;;;8311679;28;20209;-63
2023/09/25 09:24:43;;;;;;;4.97;3.20;;;;;20.30;97128.00;;;;8310686;28;20206;-63
2023/09/25 09:28:47;;;;;;;4.90;3.25;;;;;21.10;97132.00;;;;8311355;28;20201;-63
2023/09/25 09:32:51;;;;;;;7.85;3.35;;;;;21.20;97131.00;;;;8309329;28;20219;-63
2023/09/25 09:36:57;;;;;;;3.58;3.28;;;;;21.60;97133.00;;;;8311562;28;20245;-63
2023/09/25 09:41:01;;;;;;;3.78;3.42;;;;;21.40;97130.00;;;;8314124;28;20206;-63
2023/09/25 09:45:08;;;;;;;6.07;3.83;;;;;21.30;97139.00;;;;8314225;28;20198;-63
2023/09/25 09:49:15;;;;;;;3.85;3.42;;;;;21.20;97129.00;;;;8292942;28;20193;-63
2023/09/25 09:53:26;;;;;;;4.85;3.75;;;;;21.00;97116.00;;;;8310371;28;20256;-63
2023/09/25 09:57:31;;;;;;;6.07;4.28;;;;;21.10;97124.00;;;;8312893;28;20210;-63
2023/09/25 10:01:36;;;;;;;5.90;4.07;;;;;21.30;97119.00;;;;8309566;28;20276;-63
2023/09/25 10:05:45;;;;;;;5.32;3.95;;;;;21.50;97116.00;;;;8311230;28;20194;-63
2023/09/25 10:10:09;;;;;;;6.90;3.88;;;;;21.60;97113.00;;;;8312367;28;20198;-63
2023/09/25 10:14:13;;;;;;;4.47;3.72;;;;;21.60;97112.00;;;;8311473;28;20385;-63
2023/09/25 10:18:17;;;;;;;4.30;3.70;;;;;21.70;97113.00;;;;8308738;28;20292;-63
2023/09/25 10:22:24;;;;;;;3.63;3.17;;;;;21.80;97103.00;;;;8295484;28;20227;-63
2023/09/25 10:26:33;;;;;;;4.28;3.35;;;;;21.50;97097.00;;;;8310923;28;20189;-63
2023/09/25 10:30:37;;;;;;;5.30;3.38;;;;;21.50;97099.00;;;;8310046;28;20189;-63
2023/09/25 10:34:42;;;;;;;3.80;2.97;;;;;21.90;97093.00;;;;8310493;28;20229;-63
2023/09/25 10:38:52;;;;;;;3.92;3.10;;;;;22.10;97088.00;;;;8309103;28;20729;-63
2023/09/25 10:42:57;;;;;;;3.15;2.95;;;;;22.20;97082.00;;;;8305843;28;20200;-63
2023/09/25 10:47:01;;;;;;;5.18;2.88;;;;;22.40;97079.00;;;;8309251;28;20255;-63
2023/09/25 10:51:07;;;;;;;3.42;3.10;;;;;22.40;97079.00;;;;8310434;28;20324;-63
2023/09/25 10:55:11;;;;;;;3.92;2.92;;;;;22.20;97080.00;;;;8305866;28;20243;-63
2023/09/25 10:59:16;;;;;;;5.65;2.90;;;;;22.10;97073.00;;;;8290366;28;20301;-63
2023/09/25 11:03:20;;;;;;;3.50;2.70;;;;;22.00;97082.00;;;;8310432;28;20743;-63
2023/09/25 11:07:26;;;;;;;4.57;3.17;;;;;22.30;97072.00;;;;8305207;28;20279;-63
2023/09/25 11:11:30;;;;;;;2.90;2.67;;;;;22.40;97061.00;;;;8298340;28;20201;-63
2023/09/25 11:15:38;;;;;;;3.25;2.92;;;;;22.20;97066.00;;;;8308457;28;20240;-64
2023/09/25 11:19:46;;;;;;;3.28;2.97;;;;;21.90;97060.00;;;;8302296;28;20292;-64
2023/09/25 11:23:49;;;;;;;5.50;3.22;;;;;22.10;97072.00;;;;8310977;28;20233;-64
2023/09/25 11:27:54;;;;;;;4.15;3.35;;;;;22.10;97071.00;;;;8310123;28;20247;-65
2023/09/25 11:32:00;;;;;;;2.67;2.50;;;;;22.30;97064.00;;;;8311038;28;20201;-64
2023/09/25 11:36:11;;;;;;;4.75;3.00;;;;;22.30;97056.00;;;;8305908;28;20805;-64
2023/09/25 11:40:14;;;;;;;4.22;2.95;;;;;22.30;97058.00;;;;8309847;28;20309;-64
2023/09/25 11:44:17;;;;;;;3.55;3.28;;;;;22.10;97062.00;;;;8309877;28;20198;-64
2023/09/25 11:48:26;;;;;;;4.15;3.55;;;;;21.90;97051.00;;;;8311849;28;20862;-64
2023/09/25 11:52:32;;;;;;;2.75;2.30;;;;;21.90;97042.00;;;;8313691;28;20193;-64
2023/09/25 11:56:36;;;;;;;2.75;2.50;;;;;22.00;97056.00;;;;8316824;28;20915;-64
2023/09/25 12:00:39;;;;;;;2.85;2.65;;;;;22.10;97062.00;;;;8317431;28;20197;-64
2023/09/25 12:04:53;;;;;;;3.05;2.42;;;;;22.20;97050.00;;;;8314468;28;20256;-64
2023/09/25 12:08:58;;;;;;;2.78;2.55;;;;;22.30;97050.00;;;;8310952;28;20202;-64
2023/09/25 12:13:03;;;;;;;6.07;2.80;;;;;22.40;97052.00;;;;8317274;28;20236;-64
2023/09/25 12:17:07;;;;;;;3.53;2.35;;;;;22.40;97051.00;;;;8313221;28;20265;-64
2023/09/25 12:21:12;;;;;;;4.57;2.92;;;;;22.30;97053.00;;;;8315547;28;20193;-64
2023/09/25 12:25:17;;;;;;;2.35;2.22;;;;;22.30;97049.00;;;;8315605;28;20228;-63
2023/09/25 12:29:22;;;;;;;4.85;2.97;;;;;22.40;97051.00;;;;8316613;28;20228;-63
2023/09/25 12:33:26;;;;;;;4.35;2.50;;;;;22.50;97057.00;;;;8311890;28;20240;-63
2023/09/25 12:37:33;;;;;;;2.30;2.10;;;;;22.50;97042.00;;;;8316654;28;20256;-63
2023/09/25 12:41:36;;;;;;;2.15;2.05;;;;;22.50;97041.00;;;;8316966;28;20201;-63
2023/09/25 12:45:40;;;;;;;4.65;2.22;;;;;22.50;97042.00;;;;8316639;28;20194;-62
2023/09/25 12:49:44;;;;;;;2.85;2.40;;;;;22.60;97038.00;;;;8317308;28;20605;-62
2023/09/25 12:53:51;;;;;;;2.42;2.20;;;;;22.60;97038.00;;;;8314032;28;20201;-62
2023/09/25 12:57:55;;;;;;;3.70;2.42;;;;;22.50;97034.00;;;;8315203;28;20194;-62
2023/09/25 13:01:59;;;;;;;2.10;2.00;;;;;22.40;97034.00;;;;8319606;28;20222;-62
2023/09/25 13:06:04;;;;;;;2.63;2.20;;;;;22.40;97031.00;;;;8314940;28;20271;-62
2023/09/25 13:10:11;;;;;;;2.60;2.40;;;;;22.60;97027.00;;;;8316537;28;20225;-62
2023/09/25 13:14:14;;;;;;;2.22;2.13;;;;;22.70;97040.00;;;;8319567;28;20202;-62
2023/09/25 13:18:18;;;;;;;4.97;2.17;;;;;22.80;97033.00;;;;8316262;28;20194;-62
2023/09/25 13:22:24;;;;;;;2.70;2.50;;;;;22.80;97032.00;;;;8308503;28;20288;-62
2023/09/25 13:26:40;;;;;;;2.80;2.25;;;;;22.70;97025.00;;;;8315016;28;20623;-63
2023/09/25 13:30:44;;;;;;;3.53;2.17;;;;;22.80;97024.00;;;;8311638;28;20211;-62
2023/09/25 13:34:49;;;;;;;3.67;2.60;;;;;22.60;97021.00;;;;8314363;28;20630;-62
2023/09/25 13:38:54;;;;;;;2.67;2.50;;;;;22.70;97022.00;;;;8315790;28;20372;-62
2023/09/25 13:43:00;;;;;;;4.18;2.20;;;;;22.80;97006.00;;;;8315658;28;20588;-62
2023/09/25 13:47:06;;;;;;;2.47;2.28;;;;;22.90;97006.00;;;;8316711;28;20315;-62
2023/09/25 13:51:10;;;;;;;2.42;2.20;;;;;23.10;97009.00;;;;8314104;28;20290;-62
2023/09/25 13:55:17;;;;;;;2.63;2.42;;;;;23.30;97016.00;;;;8317183;28;20219;-62
2023/09/25 13:59:22;;;;;;;3.20;2.90;;;;;23.60;97014.00;;;;8321838;28;20300;-62
2023/09/25 14:03:25;;;;;;;3.85;2.38;;;;;23.90;97013.00;;;;8312639;28;20229;-62
2023/09/25 14:07:28;;;;;;;2.30;2.20;;;;;24.20;97014.00;;;;8313502;28;20652;-62
2023/09/25 14:11:35;;;;;;;4.65;2.35;;;;;24.40;97005.00;;;;8305978;28;20360;-63
2023/09/25 14:15:40;;;;;;;4.00;2.67;;;;;24.30;97007.00;;;;8317890;28;20260;-62
2023/09/25 14:19:45;;;;;;;2.40;2.20;;;;;24.50;97006.00;;;;8314459;28;20716;-62
2023/09/25 14:23:49;;;;;;;2.17;2.08;;;;;24.70;97006.00;;;;8305143;28;20611;-62
2023/09/25 14:27:55;;;;;;;2.40;2.30;;;;;24.80;97008.00;;;;8308893;28;20205;-62
2023/09/25 14:32:01;;;;;;;4.38;2.35;;;;;24.90;96993.00;;;;8311479;28;20197;-62
2023/09/25 14:36:09;;;;;;;3.47;2.40;;;;;25.10;97003.00;;;;8309536;28;20233;-62
2023/09/25 14:40:16;;;;;;;3.05;2.17;;;;;25.10;97007.00;;;;8308393;28;20202;-62
2023/09/25 14:44:19;;;;;;;2.20;2.10;;;;;24.90;97012.00;;;;8294750;28;20201;-61
2023/09/25 14:48:25;;;;;;;2.50;2.30;;;;;24.50;97007.00;;;;8311802;28;20742;-61
2023/09/25 14:52:32;;;;;;;5.65;2.30;;;;;24.30;97007.00;;;;8315798;28;20193;-62
2023/09/25 14:56:35;;;;;;;3.05;2.30;;;;;24.10;97004.00;;;;8309094;28;20633;-61
2023/09/25 15:00:41;;;;;;;2.22;2.13;;;;;23.90;96991.00;;;;8306119;28;20232;-62
2023/09/25 15:04:45;;;;;;;3.70;2.30;;;;;23.90;97001.00;;;;8276991;28;20231;-62
2023/09/25 15:08:49;;;;;;;2.47;2.28;;;;;23.70;97003.00;;;;8274563;28;20622;-61
2023/09/25 15:12:52;;;;;;;2.30;2.20;;;;;23.60;97008.00;;;;8274613;28;20841;-61
2023/09/25 15:16:57;;;;;;;3.17;2.30;;;;;23.50;96992.00;;;;8280067;28;20765;-62
2023/09/25 15:21:07;;;;;;;3.30;2.33;;;;;23.50;96992.00;;;;8280915;28;20229;-61
2023/09/25 15:25:11;;;;;;;2.25;2.10;;;;;23.50;96999.00;;;;8279150;28;20231;-61
2023/09/25 15:29:19;;;;;;;2.35;2.15;;;;;23.40;96990.00;;;;8261294;28;20198;-62
2023/09/25 15:33:26;;;;;;;2.33;2.22;;;;;23.30;96981.00;;;;8272461;28;20208;-61
2023/09/25 15:37:34;;;;;;;2.30;2.10;;;;;23.20;96996.00;;;;8274724;28;20279;-62
2023/09/25 15:41:38;;;;;;;2.22;2.13;;;;;23.10;96984.00;;;;8275170;28;20289;-61
2023/09/25 15:45:41;;;;;;;2.65;2.25;;;;;23.10;96981.00;;;;8269219;28;20491;-62
2023/09/25 15:49:49;;;;;;;2.60;2.30;;;;;23.00;96985.00;;;;8273361;28;20220;-62
2023/09/25 15:53:53;;;;;;;3.17;2.40;;;;;23.00;96987.00;;;;8269154;28;20206;-60
2023/09/25 15:57:56;;;;;;;2.25;2.08;;;;;22.80;96987.00;;;;8271602;28;20236;-65
2023/09/25 16:02:03;;;;;;;2.00;1.90;;;;;22.60;96991.00;;;;8281748;28;20225;-63
2023/09/25 16:06:11;;;;;;;5.15;2.28;;;;;22.30;96992.00;;;;8305930;28;20288;-64
2023/09/25 16:10:18;;;;;;;2.50;2.30;;;;;22.10;96986.00;;;;8305222;28;20209;-64
2023/09/25 16:14:21;;;;;;;2.30;2.10;;;;;21.80;96986.00;;;;8308391;28;20201;-64
2023/09/25 16:18:27;;;;;;;3.90;2.35;;;;;21.60;96998.00;;;;8303896;28;20309;-65
2023/09/25 16:22:30;;;;;;;6.15;2.65;;;;;21.40;96983.00;;;;8310019;28;20198;-64
2023/09/25 16:26:36;;;;;;;2.58;2.40;;;;;21.20;96988.00;;;;8304917;28;20284;-64
2023/09/25 16:30:41;;;;;;;2.70;2.20;;;;;21.00;96987.00;;;;8308198;28;20211;-64
2023/09/25 16:34:45;;;;;;;4.10;2.50;;;;;20.80;96985.00;;;;8311545;28;20221;-65
2023/09/25 16:38:48;;;;;;;2.70;2.50;;;;;20.60;96988.00;;;;8312458;28;20256;-64
2023/09/25 16:42:55;;;;;;;5.00;2.22;;;;;20.40;96986.00;;;;8296622;28;20608;-64
2023/09/25 16:47:01;;;;;;;2.88;2.25;;;;;20.10;96989.00;;;;8316090;28;20210;-65
2023/09/25 16:51:09;;;;;;;2.78;2.58;;;;;19.80;96987.00;;;;8316058;28;20194;-64
2023/09/25 16:55:17;;;;;;;2.85;2.50;;;;;19.50;96985.00;;;;8313837;28;20201;-64
2023/09/25 16:59:22;;;;;;;3.15;2.85;;;;;19.10;96990.00;;;;8315762;28;20237;-65
2023/09/25 17:03:27;;;;;;;3.08;2.78;;;;;18.70;97000.00;;;;8316352;28;20260;-64
2023/09/25 17:07:30;;;;;;;3.88;2.80;;;;;18.40;96999.00;;;;8312982;28;20213;-64
2023/09/25 17:11:33;;;;;;;3.08;2.88;;;;;18.10;96998.00;;;;8313564;28;20229;-65
2023/09/25 17:15:42;;;;;;;3.53;2.95;;;;;17.80;96992.00;;;;8311147;28;20212;-65
2023/09/25 17:19:45;;;;;;;5.50;3.30;;;;;17.50;96991.00;;;;8315831;28;20655;-64
2023/09/25 17:23:55;;;;;;;3.38;2.95;;;;;17.20;96997.00;;;;8312545;28;20267;-64
2023/09/25 17:28:02;;;;;;;4.30;3.25;;;;;17.00;96997.00;;;;8313336;28;20285;-64
2023/09/25 17:32:07;;;;;;;6.18;3.65;;;;;16.80;96997.00;;;;8312354;28;20205;-64
2023/09/25 17:36:10;;;;;;;4.72;3.28;;;;;16.50;97000.00;;;;8313193;28;20344;-64
2023/09/25 17:40:13;;;;;;;4.43;3.63;;;;;16.30;96999.00;;;;8311479;28;20213;-64
2023/09/25 17:44:21;;;;;;;4.13;3.75;;;;;16.10;97005.00;;;;8308278;28;20202;-64
2023/09/25 17:48:26;;;;;;;5.25;4.03;;;;;15.90;97000.00;;;;8302705;28;20236;-64
2023/09/25 17:52:33;;;;;;;6.45;3.80;;;;;15.80;97006.00;;;;8306527;28;20735;-64
2023/09/25 17:56:39;;;;;;;7.25;4.00;;;;;15.70;97012.00;;;;8310517;28;20233;-64
2023/09/25 18:00:50;;;;;;;4.57;3.40;;;;;15.60;97011.00;;;;8307312;28;20650;-64
2023/09/25 18:04:55;;;;;;;10.25;4.10;;;;;15.60;97015.00;;;;8310948;28;20233;-64
2023/09/25 18:08:59;;;;;;;6.80;4.13;;;;;15.50;97018.00;;;;8309774;28;20818;-64
2023/09/25 18:13:04;;;;;;;6.78;3.95;;;;;15.40;97021.00;;;;8310562;28;20198;-64
2023/09/25 18:17:08;;;;;;;5.63;4.93;;;;;15.30;97026.00;;;;8310717;28;20225;-64
2023/09/25 18:21:14;;;;;;;5.50;4.50;;;;;15.30;97021.00;;;;8309340;28;20232;-64
2023/09/25 18:25:21;;;;;;;6.05;4.90;;;;;15.30;97022.00;;;;8311538;28;20578;-64
2023/09/25 18:29:24;;;;;;;6.95;4.85;;;;;15.30;97021.00;;;;8312373;28;20229;-64
2023/09/25 18:33:27;;;;;;;4.78;4.15;;;;;15.40;97017.00;;;;8311518;28;20208;-64
2023/09/25 18:37:32;;;;;;;7.28;4.30;;;;;15.30;97015.00;;;;8308455;28;20235;-65
2023/09/25 18:41:37;;;;;;;5.28;4.78;;;;;15.30;97013.00;;;;8304643;28;20542;-65
2023/09/25 18:45:43;;;;;;;7.32;4.82;;;;;15.20;97014.00;;;;8311080;28;20206;-64
2023/09/25 18:49:47;;;;;;;7.43;4.60;;;;;15.10;97007.00;;;;8315009;28;20197;-64
2023/09/25 18:53:56;;;;;;;4.97;4.47;;;;;15.00;97004.00;;;;8313549;28;20204;-64
2023/09/25 18:57:59;;;;;;;7.00;4.93;;;;;14.90;97005.00;;;;8302386;28;20235;-63
2023/09/25 19:02:02;;;;;;;5.80;4.78;;;;;14.70;97005.00;;;;8302880;28;20233;-64
2023/09/25 19:06:08;;;;;;;9.65;6.22;;;;;14.60;97007.00;;;;8312971;28;20292;-63
2023/09/25 19:10:14;;;;;;;7.97;5.80;;;;;14.50;97004.00;;;;8311749;28;20571;-65
2023/09/25 19:14:17;;;;;;;10.45;6.22;;;;;14.40;97008.00;;;;8310988;28;20322;-65
2023/09/25 19:18:26;;;;;;;9.00;5.65;;;;;14.30;97021.00;;;;8308981;28;20240;-65
2023/09/25 19:22:32;;;;;;;9.18;5.57;;;;;14.20;97011.00;;;;8312601;28;20205;-65
2023/09/25 19:26:38;;;;;;;7.15;4.72;;;;;14.00;97024.00;;;;8301358;28;20601;-64
2023/09/25 19:30:42;;;;;;;7.82;5.93;;;;;13.90;97025.00;;;;8329503;28;20828;-65
2023/09/25 19:34:46;;;;;;;8.40;5.05;;;;;13.70;97016.00;;;;8310127;28;20197;-65
2023/09/25 19:38:51;;;;;;;12.98;6.20;;;;;13.60;97019.00;;;;8308871;28;20851;-65
2023/09/25 19:43:00;;;;;;;7.00;5.75;;;;;13.60;97017.00;;;;8323713;28;20197;-65
2023/09/25 19:47:03;;;;;;;8.50;5.78;;;;;13.50;97020.00;;;;8316055;28;20197;-66
2023/09/25 19:51:10;;;;;;;6.65;5.45;;;;;13.40;97016.00;;;;8315058;28;20207;-65
2023/09/25 19:55:15;;;;;;;6.95;4.85;;;;;13.30;97017.00;;;;8326460;28;20213;-66
2023/09/25 19:59:23;;;;;;;7.47;5.50;;;;;13.20;97019.00;;;;8298069;28;20224;-64
2023/09/25 20:03:28;;;;;;;8.68;5.60;;;;;13.20;97020.00;;;;8304597;28;20985;-65
2023/09/25 20:07:31;;;;;;;8.75;6.78;;;;;13.20;97023.00;;;;8309877;28;20209;-65
2023/09/25 20:11:35;;;;;;;7.22;5.57;;;;;13.10;97027.00;;;;8316096;28;20274;-64
2023/09/25 20:15:42;;;;;;;13.18;6.22;;;;;13.10;97028.00;;;;8322976;28;20205;-64
2023/09/25 20:19:45;;;;;;;7.88;5.85;;;;;13.00;97029.00;;;;8318003;28;20256;-65
2023/09/25 20:23:52;;;;;;;8.52;6.05;;;;;12.90;97031.00;;;;8326235;28;20204;-64
2023/09/25 20:27:55;;;;;;;8.23;5.85;;;;;12.90;97026.00;;;;8327825;28;20223;-65
2023/09/25 20:32:04;;;;;;;7.43;5.57;;;;;12.90;97035.00;;;;8304003;28;20225;-65
2023/09/25 20:36:08;;;;;;;6.38;5.40;;;;;12.80;97039.00;;;;8323281;28;20206;-65